Bellingham International Airport Bellingham US
ICAO: KBLI
IATA: BLI
Category: Medium
Scheduled Services: Yes

Elevation: 170 ft
TransAlt. 18000 ft.

Airport Communications:
VICTORIA APP/DEP:132.7
ATIS:134.45
CTAF:124.9
GND:127.4
SEATTLE RDO:122.15
TWR:124.9
UNICOM:122.95

KBLI Zoom In..

If you have problems with the map follow the link
https://www.worldairports.se/pages/airport.php?
ICAO=KBLI

Runways:

(A) RW 16 length 6701 ft width 150 ft
ILS 108.50 / hdg 160

(B) RW 34 length 6701 ft width 150 ft
---- / hdg 340

Location; KBLI
Day. 13 / Time. 20.53 Zulu
* Altimeter: 30.05
* Temperature: 09° c. 48.2°f.
* Wind from: 180° Speed 04 kn.
Dewpoint: 05° c.
Visibility: 10 Statute Miles.
Clouds: Scattered 3000 ft.
Clouds: Overcast 3500 ft.

KBLI 132053Z 18004KT 10SM SCT030 OVC035 09/05 A3005 RMK AO2 SLP184 T00890050 58010


Wind From 180°
Speed 04 kn.

 
 
jpsmedia worldairports.se 2019   terms of use